createdAt,value
2019-06-08T00:00:16.767Z,24.60
2019-06-08T00:02:55.850Z,24.70
2019-06-08T00:05:32.120Z,24.80
2019-06-08T00:08:10.911Z,24.90
2019-06-08T00:10:46.988Z,25.00
2019-06-08T00:13:24.750Z,25.00
2019-06-08T00:16:00.648Z,24.90
2019-06-08T00:18:43.158Z,25.20
2019-06-08T00:21:24.053Z,25.40
2019-06-08T00:24:03.054Z,25.60
2019-06-08T00:26:38.127Z,25.40
2019-06-08T00:29:22.905Z,25.40
2019-06-08T00:31:57.038Z,25.70
2019-06-08T00:34:34.545Z,25.50
2019-06-08T00:37:15.234Z,25.60
2019-06-08T00:39:52.608Z,25.90
2019-06-08T00:42:29.355Z,26.10
2019-06-08T00:45:15.282Z,26.00
2019-06-08T00:47:51.086Z,26.10
2019-06-08T00:50:29.542Z,26.20
2019-06-08T00:53:06.342Z,26.40
2019-06-08T00:55:42.141Z,26.80
2019-06-08T00:58:26.318Z,26.70
2019-06-08T01:01:01.909Z,26.70
2019-06-08T01:03:39.660Z,26.90
2019-06-08T01:06:19.062Z,26.90
2019-06-08T01:08:55.998Z,26.70
2019-06-08T01:11:32.514Z,26.70
2019-06-08T01:14:08.505Z,26.80
2019-06-08T01:16:50.060Z,26.80
2019-06-08T01:19:29.616Z,26.70
2019-06-08T01:22:07.712Z,26.80
2019-06-08T01:24:47.622Z,26.80
2019-06-08T01:27:26.063Z,26.70
2019-06-08T01:30:10.934Z,26.90
2019-06-08T01:32:50.381Z,26.90
2019-06-08T01:35:26.919Z,26.90
2019-06-08T01:38:12.188Z,26.90
2019-06-08T01:43:43.205Z,27.00
2019-06-08T01:46:21.760Z,27.00
2019-06-08T01:49:00.003Z,27.00
2019-06-08T01:51:52.826Z,27.00
2019-06-08T01:54:38.291Z,26.80
2019-06-08T01:57:23.152Z,26.90
2019-06-08T01:59:59.067Z,26.90
2019-06-08T02:05:34.515Z,27.40
2019-06-08T02:08:12.241Z,27.30
2019-06-08T02:10:54.656Z,26.90
2019-06-08T02:13:38.006Z,27.20
2019-06-08T02:16:15.233Z,27.50
2019-06-08T02:18:56.996Z,27.70
2019-06-08T02:21:35.290Z,27.70
2019-06-08T02:24:20.513Z,28.00
2019-06-08T02:27:00.111Z,28.10
2019-06-08T02:29:47.046Z,28.10
2019-06-08T02:32:31.628Z,28.20
2019-06-08T02:35:11.532Z,28.30
2019-06-08T02:37:52.679Z,28.40
2019-06-08T02:40:40.316Z,28.50
2019-06-08T02:43:18.851Z,28.60
2019-06-08T02:45:56.202Z,28.50
2019-06-08T02:49:00.323Z,28.30
2019-06-08T02:51:19.678Z,28.60
2019-06-08T02:53:58.786Z,28.80
2019-06-08T02:56:39.287Z,29.00
2019-06-08T02:59:26.819Z,28.90
2019-06-08T03:02:04.607Z,28.70
2019-06-08T03:04:45.200Z,28.90
2019-06-08T03:10:15.241Z,28.90
2019-06-08T03:12:57.266Z,29.10
2019-06-08T03:15:53.829Z,29.40
2019-06-08T03:18:33.491Z,29.50
2019-06-08T03:21:07.680Z,29.50
2019-06-08T03:23:45.539Z,29.30
2019-06-08T03:26:27.095Z,29.30
2019-06-08T03:29:06.664Z,29.20
2019-06-08T03:31:54.325Z,29.40
2019-06-08T03:34:21.647Z,29.70
2019-06-08T03:37:01.851Z,30.00
2019-06-08T03:39:43.122Z,29.60
2019-06-08T03:42:21.267Z,29.70
2019-06-08T03:44:58.821Z,29.80
2019-06-08T03:47:36.805Z,30.10
2019-06-08T03:50:21.085Z,30.30
2019-06-08T03:53:01.238Z,30.50
2019-06-08T03:55:54.691Z,30.70
2019-06-08T03:58:45.140Z,30.40
2019-06-08T04:01:26.319Z,30.50
2019-06-08T04:04:19.607Z,30.40
2019-06-08T04:06:56.711Z,30.40
2019-06-08T04:09:37.619Z,30.50
2019-06-08T04:12:21.861Z,30.50
2019-06-08T04:15:05.737Z,30.50
2019-06-08T04:17:46.527Z,30.40
2019-06-08T04:20:37.857Z,30.10
2019-06-08T04:23:13.603Z,30.50
2019-06-08T04:25:52.388Z,30.90
2019-06-08T04:28:28.084Z,31.00
2019-06-08T04:31:07.761Z,30.80
2019-06-08T04:33:51.442Z,30.70
2019-06-08T04:36:29.801Z,30.60
2019-06-08T04:39:25.189Z,30.40
2019-06-08T04:42:03.652Z,30.70
2019-06-08T04:44:44.653Z,30.70
2019-06-08T04:47:24.315Z,30.70
2019-06-08T04:50:20.923Z,31.00
2019-06-08T04:52:49.654Z,30.70
2019-06-08T04:55:33.065Z,30.70
2019-06-08T04:58:11.131Z,29.90
2019-06-08T05:03:47.783Z,30.40
2019-06-08T05:06:45.202Z,30.90
2019-06-08T05:09:21.405Z,30.50
2019-06-08T05:12:14.291Z,30.50
2019-06-08T05:17:49.679Z,30.80
2019-06-08T05:20:38.184Z,30.60
2019-06-08T05:23:05.565Z,30.80
2019-06-08T05:25:51.767Z,30.40
2019-06-08T05:28:45.530Z,30.50
2019-06-08T05:31:22.230Z,30.70
2019-06-08T05:34:06.413Z,31.10
2019-06-08T05:36:47.457Z,31.10
2019-06-08T05:39:27.992Z,31.10
2019-06-08T05:45:00.995Z,31.30
2019-06-08T05:47:43.810Z,31.10
2019-06-08T05:50:21.256Z,30.80
2019-06-08T05:53:00.142Z,30.60
2019-06-08T05:55:39.698Z,31.00
2019-06-08T05:58:17.909Z,31.50
2019-06-08T06:00:59.227Z,31.60
2019-06-08T06:03:42.292Z,31.90
2019-06-08T06:06:18.130Z,32.00
2019-06-08T06:14:51.276Z,32.10
2019-06-08T06:23:28.384Z,31.60
2019-06-08T06:26:22.799Z,31.30
2019-06-08T06:29:16.035Z,31.00
2019-06-08T06:32:03.540Z,31.20
2019-06-08T06:34:47.839Z,31.20
2019-06-08T06:37:43.769Z,31.10
2019-06-08T06:40:22.708Z,31.20
2019-06-08T06:46:12.685Z,31.80
2019-06-08T06:48:52.497Z,32.10
2019-06-08T06:51:34.055Z,32.10
2019-06-08T06:57:13.446Z,32.20
2019-06-08T07:02:47.609Z,32.10
2019-06-08T07:11:24.754Z,32.30
2019-06-08T07:14:13.787Z,32.40
2019-06-08T07:19:46.377Z,32.00
2019-06-08T07:22:28.912Z,32.10
2019-06-08T07:28:17.428Z,32.30
2019-06-08T07:31:04.352Z,32.40
2019-06-08T07:33:41.162Z,32.50
2019-06-08T07:39:17.779Z,32.40
2019-06-08T07:41:55.966Z,32.50
2019-06-08T07:44:35.793Z,32.60
2019-06-08T07:47:20.324Z,32.70
2019-06-08T07:53:07.667Z,32.50
2019-06-08T07:55:53.507Z,32.20
2019-06-08T07:58:49.754Z,32.20
2019-06-08T08:01:36.255Z,32.30
2019-06-08T08:04:31.617Z,32.40
2019-06-08T08:07:11.531Z,32.40
2019-06-08T08:10:01.018Z,32.20
2019-06-08T08:18:28.912Z,32.40
2019-06-08T08:21:21.305Z,31.70
2019-06-08T08:24:01.601Z,31.60
2019-06-08T08:26:44.651Z,31.70
2019-06-08T08:32:15.577Z,31.30
2019-06-08T08:35:00.334Z,31.30
2019-06-08T08:37:38.044Z,31.40
2019-06-08T08:40:28.746Z,31.50
2019-06-08T08:43:09.686Z,31.70
2019-06-08T08:45:56.031Z,31.70
2019-06-08T08:48:45.422Z,31.40
2019-06-08T08:51:28.427Z,31.30
2019-06-08T08:57:08.289Z,31.10
2019-06-08T08:59:50.282Z,31.10
2019-06-08T09:02:29.542Z,31.00
2019-06-08T09:05:09.014Z,31.00
2019-06-08T09:07:51.244Z,30.80
2019-06-08T09:10:44.117Z,31.00
2019-06-08T09:13:28.338Z,31.10
2019-06-08T09:16:04.543Z,30.90
2019-06-08T09:18:52.195Z,30.90
2019-06-08T09:21:34.671Z,30.70
2019-06-08T09:24:18.686Z,30.60
2019-06-08T09:27:04.237Z,30.80
2019-06-08T09:32:57.169Z,30.50
2019-06-08T09:35:49.940Z,30.50
2019-06-08T09:38:35.508Z,30.50
2019-06-08T09:41:22.011Z,30.60
2019-06-08T09:44:10.724Z,30.40
2019-06-08T09:46:53.594Z,30.20
2019-06-08T09:49:48.049Z,30.20
2019-06-08T09:53:06.264Z,30.10
2019-06-08T10:01:28.564Z,29.90
2019-06-08T10:04:08.525Z,29.90
2019-06-08T10:09:43.212Z,29.80
2019-06-08T10:12:28.233Z,29.70
2019-06-08T10:15:18.670Z,29.60
2019-06-08T10:18:03.287Z,29.70
2019-06-08T10:20:48.008Z,29.70
2019-06-08T10:23:31.885Z,29.60
2019-06-08T10:26:06.523Z,29.50
2019-06-08T10:29:02.162Z,29.50
2019-06-08T10:31:43.038Z,29.30
2019-06-08T10:34:20.962Z,29.30
2019-06-08T10:37:12.554Z,29.40
2019-06-08T10:39:56.426Z,29.40
2019-06-08T10:42:39.801Z,29.40
2019-06-08T10:45:15.581Z,29.30
2019-06-08T10:48:02.622Z,29.20
2019-06-08T10:50:42.405Z,29.00
2019-06-08T10:53:28.609Z,29.10
2019-06-08T11:02:14.744Z,29.00
2019-06-08T11:04:58.798Z,28.70
2019-06-08T11:13:22.228Z,28.80
2019-06-08T11:16:12.801Z,28.60
2019-06-08T11:18:53.463Z,28.60
2019-06-08T11:21:43.502Z,28.50
2019-06-08T11:24:24.495Z,28.50
2019-06-08T11:27:01.265Z,28.30
2019-06-08T11:29:48.238Z,28.20
2019-06-08T11:35:28.558Z,28.00
2019-06-08T11:38:02.125Z,28.00
2019-06-08T11:40:38.317Z,27.90
2019-06-08T11:43:14.322Z,27.80
2019-06-08T11:48:48.478Z,27.90
2019-06-08T11:51:29.764Z,27.90
2019-06-08T11:54:19.237Z,27.70
2019-06-08T11:56:57.722Z,27.80
2019-06-08T11:59:44.503Z,27.90
2019-06-08T12:02:28.514Z,27.80
2019-06-08T12:05:12.400Z,27.80
2019-06-08T12:13:47.749Z,28.00
2019-06-08T12:16:32.966Z,27.70
2019-06-08T12:19:20.947Z,27.70
2019-06-08T12:22:11.626Z,27.60
2019-06-08T12:24:58.453Z,27.70
2019-06-08T12:30:45.070Z,27.80
2019-06-08T12:33:22.809Z,27.70
2019-06-08T12:44:58.848Z,27.20
2019-06-08T12:47:38.589Z,27.00
2019-06-08T12:50:20.121Z,27.30
2019-06-08T12:53:11.202Z,27.40
2019-06-08T12:58:47.635Z,27.40
2019-06-08T13:01:28.103Z,27.30
2019-06-08T13:07:09.745Z,27.30
2019-06-08T13:09:48.162Z,27.30
2019-06-08T13:18:21.475Z,27.10
2019-06-08T13:23:50.488Z,27.10
2019-06-08T13:26:44.740Z,27.00
2019-06-08T13:29:27.892Z,26.90
2019-06-08T13:32:07.873Z,27.00
2019-06-08T13:43:30.706Z,26.70
2019-06-08T13:55:00.176Z,26.80
2019-06-08T14:00:59.743Z,26.50
2019-06-08T14:03:41.818Z,26.40
2019-06-08T14:06:21.710Z,26.30
2019-06-08T14:14:58.251Z,26.30
2019-06-08T14:17:32.022Z,26.30
2019-06-08T14:20:19.320Z,26.20
2019-06-08T14:31:40.885Z,26.10
2019-06-08T14:40:15.659Z,26.10
2019-06-08T14:43:01.346Z,26.10
2019-06-08T14:54:35.039Z,26.20
2019-06-08T14:57:30.845Z,26.00
2019-06-08T15:00:21.263Z,26.10
2019-06-08T15:03:01.946Z,26.10
2019-06-08T15:11:47.924Z,26.10
2019-06-08T15:17:28.881Z,26.10
2019-06-08T15:22:59.048Z,26.10
2019-06-08T15:25:45.494Z,26.00
2019-06-08T15:34:14.698Z,25.90
2019-06-08T15:42:48.225Z,25.80
2019-06-08T15:45:41.809Z,25.80
2019-06-08T15:48:30.985Z,25.70
2019-06-08T15:51:18.516Z,25.70
2019-06-08T15:56:53.954Z,25.80
2019-06-08T16:02:40.246Z,25.70
2019-06-08T16:05:19.379Z,25.70
2019-06-08T16:16:46.522Z,25.70
2019-06-08T16:19:35.965Z,25.50
2019-06-08T16:22:10.935Z,25.40
2019-06-08T16:27:50.090Z,25.20
2019-06-08T16:36:17.469Z,24.90
2019-06-08T16:45:00.027Z,25.10
2019-06-08T16:47:46.997Z,24.90
2019-06-08T16:50:40.431Z,25.00
2019-06-08T16:53:27.353Z,25.10
2019-06-08T16:56:15.440Z,25.10
2019-06-08T16:58:59.507Z,25.10
2019-06-08T17:01:44.390Z,25.10
2019-06-08T17:07:22.861Z,25.30
2019-06-08T17:10:03.381Z,25.40
2019-06-08T17:15:40.320Z,25.70
2019-06-08T17:21:15.090Z,25.60
2019-06-08T17:23:54.040Z,25.50
2019-06-08T17:26:43.466Z,25.50
2019-06-08T17:32:13.456Z,25.50
2019-06-08T17:34:55.462Z,25.50
2019-06-08T17:37:38.137Z,25.60
2019-06-08T17:40:23.591Z,25.50
2019-06-08T17:42:59.440Z,25.20
2019-06-08T17:45:46.570Z,25.20
2019-06-08T17:48:30.295Z,25.30
2019-06-08T17:51:23.863Z,25.40
2019-06-08T17:54:02.528Z,25.40
2019-06-08T17:59:37.477Z,25.50
2019-06-08T18:02:25.066Z,25.40
2019-06-08T18:05:03.286Z,25.40
2019-06-08T18:07:48.925Z,25.20
2019-06-08T18:10:24.335Z,25.10
2019-06-08T18:13:08.642Z,25.20
2019-06-08T18:15:48.148Z,25.20
2019-06-08T18:18:28.131Z,25.20
2019-06-08T18:21:04.829Z,25.30
2019-06-08T18:23:45.007Z,25.40
2019-06-08T18:29:18.255Z,25.20
2019-06-08T18:32:02.295Z,25.20
2019-06-08T18:34:42.165Z,25.10
2019-06-08T18:37:19.073Z,25.20
2019-06-08T18:39:58.033Z,25.20
2019-06-08T18:42:45.692Z,25.20
2019-06-08T18:45:27.794Z,25.30
2019-06-08T18:48:07.233Z,25.30
2019-06-08T18:50:50.328Z,25.30
2019-06-08T18:53:27.315Z,25.20
2019-06-08T18:56:09.851Z,25.20
2019-06-08T18:58:58.160Z,25.20
2019-06-08T19:01:39.418Z,25.10
2019-06-08T19:04:13.388Z,25.00
2019-06-08T19:06:51.726Z,24.90
2019-06-08T19:09:27.685Z,24.90
2019-06-08T19:12:04.744Z,24.90
2019-06-08T19:14:43.534Z,24.90
2019-06-08T19:17:19.248Z,24.80
2019-06-08T19:19:57.786Z,24.80
2019-06-08T19:22:33.511Z,24.80
2019-06-08T19:25:10.272Z,24.90
2019-06-08T19:27:52.960Z,24.80
2019-06-08T19:30:24.879Z,25.00
2019-06-08T19:32:59.614Z,24.80
2019-06-08T19:35:35.417Z,24.80
2019-06-08T19:38:18.140Z,24.80
2019-06-08T19:40:57.230Z,24.80
2019-06-08T19:43:33.293Z,24.50
2019-06-08T19:46:10.714Z,24.50
2019-06-08T19:48:53.218Z,24.40
2019-06-08T19:51:24.793Z,24.40
2019-06-08T19:54:00.599Z,24.50
2019-06-08T19:56:38.583Z,24.50
2019-06-08T19:59:13.639Z,24.70
2019-06-08T20:01:54.998Z,24.70
2019-06-08T20:04:29.700Z,24.80
2019-06-08T20:07:08.848Z,24.80
2019-06-08T20:09:41.072Z,24.80
2019-06-08T20:12:18.485Z,24.80
2019-06-08T20:14:53.811Z,24.70
2019-06-08T20:17:30.824Z,24.70
2019-06-08T20:20:10.683Z,24.60
2019-06-08T20:22:46.670Z,24.50
2019-06-08T20:25:22.918Z,24.40
2019-06-08T20:27:59.862Z,24.40
2019-06-08T20:30:37.642Z,24.20
2019-06-08T20:33:13.309Z,24.00
2019-06-08T20:35:51.792Z,24.20
2019-06-08T20:38:35.254Z,23.90
2019-06-08T20:41:01.391Z,23.90
2019-06-08T20:43:38.178Z,23.80
2019-06-08T20:46:13.893Z,23.90
2019-06-08T20:48:50.463Z,23.90
2019-06-08T20:51:24.672Z,24.10
2019-06-08T20:54:04.166Z,24.10
2019-06-08T20:56:42.905Z,24.10
2019-06-08T20:59:29.838Z,24.10
2019-06-08T21:02:01.589Z,24.00
2019-06-08T21:04:38.415Z,24.20
2019-06-08T21:07:14.303Z,24.20
2019-06-08T21:09:52.004Z,24.10
2019-06-08T21:12:28.315Z,24.10
2019-06-08T21:15:03.629Z,24.20
2019-06-08T21:17:39.540Z,24.10
2019-06-08T21:20:17.752Z,24.30
2019-06-08T21:22:59.491Z,24.30
2019-06-08T21:25:33.399Z,24.20
2019-06-08T21:28:07.798Z,24.20
2019-06-08T21:30:46.476Z,24.20
2019-06-08T21:33:31.444Z,24.30
2019-06-08T21:36:08.791Z,24.30
2019-06-08T21:38:42.337Z,24.40
2019-06-08T21:41:17.926Z,24.50
2019-06-08T21:44:00.037Z,24.50
2019-06-08T21:46:32.795Z,24.70
2019-06-08T21:49:08.694Z,24.70
2019-06-08T21:51:49.687Z,24.60
2019-06-08T21:54:22.539Z,24.80
2019-06-08T21:57:00.980Z,24.70
2019-06-08T21:59:37.882Z,24.80
2019-06-08T22:02:13.982Z,24.80
2019-06-08T22:04:53.787Z,24.70
2019-06-08T22:07:28.716Z,24.60
2019-06-08T22:10:07.259Z,24.50
2019-06-08T22:12:48.006Z,24.50
2019-06-08T22:15:23.909Z,24.60
2019-06-08T22:18:01.135Z,24.50
2019-06-08T22:20:40.732Z,24.10
2019-06-08T22:23:18.823Z,24.20
2019-06-08T22:25:59.825Z,24.20
2019-06-08T22:28:39.443Z,24.00
2019-06-08T22:31:17.110Z,23.90
2019-06-08T22:33:54.000Z,24.10
2019-06-08T22:36:30.371Z,24.40
2019-06-08T22:39:08.282Z,24.60
2019-06-08T22:41:49.311Z,24.60
2019-06-08T22:44:25.051Z,24.60
2019-06-08T22:47:03.625Z,24.90
2019-06-08T22:49:38.978Z,24.90
2019-06-08T22:52:18.516Z,24.80
2019-06-08T22:54:57.601Z,24.90
2019-06-08T22:57:31.319Z,24.80
2019-06-08T23:00:16.269Z,24.80
2019-06-08T23:02:49.340Z,25.00
2019-06-08T23:05:27.736Z,25.00
2019-06-08T23:08:09.344Z,24.80
2019-06-08T23:10:45.359Z,24.80
2019-06-08T23:13:23.900Z,24.90
2019-06-08T23:16:04.380Z,24.80
2019-06-08T23:18:47.634Z,24.70
2019-06-08T23:21:21.978Z,24.70
2019-06-08T23:24:01.048Z,24.90
2019-06-08T23:26:37.236Z,24.70
2019-06-08T23:29:14.495Z,24.50
2019-06-08T23:31:54.131Z,24.50
2019-06-08T23:34:31.345Z,24.50
2019-06-08T23:37:11.968Z,24.60
2019-06-08T23:39:53.122Z,24.70
2019-06-08T23:42:32.304Z,24.80
2019-06-08T23:45:11.518Z,24.90
2019-06-08T23:47:50.984Z,25.20
2019-06-08T23:50:28.064Z,25.40
2019-06-08T23:53:10.748Z,25.60
2019-06-08T23:55:47.917Z,25.80
2019-06-08T23:58:27.826Z,25.70
